Time;durP1;ratioP1;P1;durP2;ratioP2;P2;SDS_P1;SDS_P2;PMS_P1;PMS_P2;Temp;Humidity;BMP_temperature;BMP_pressure;BME280_temperature;BME280_humidity;BME280_pressure;Samples;Min_cycle;Max_cycle;Signal;HPM_P1;HPM_P2
2023/01/27 00:02:06;;;;;;;3.15;1.42;;;;;;;;;;4394624;32;64901;-60
2023/01/27 00:04:53;;;;;;;1.87;1.48;;;;;;;;;;4404325;32;67039;-60
2023/01/27 00:07:47;;;;;;;1.67;1.42;;;;;;;;;;4404083;32;67552;-59
2023/01/27 00:10:33;;;;;;;1.50;1.12;;;;;;;;;;4405263;32;71273;-59
2023/01/27 00:13:30;;;;;;;2.85;1.50;;;;;;;;;;4395171;32;64978;-60
2023/01/27 00:16:17;;;;;;;2.08;1.20;;;;;;;;;;4381741;32;68310;-60
2023/01/27 00:19:04;;;;;;;2.10;1.35;;;;;;;;;;4390436;32;60729;-60
2023/01/27 00:24:56;;;;;;;2.08;1.40;;;;;;;;;;4415684;32;68572;-61
2023/01/27 00:27:43;;;;;;;2.70;1.40;;;;;;;;;;4415499;32;67593;-59
2023/01/27 00:30:29;;;;;;;;;;;;;;;;;;4403990;32;70994;-60
2023/01/27 00:33:25;;;;;;;1.90;1.30;;;;;;;;;;4400766;32;70121;-59
2023/01/27 00:36:12;;;;;;;2.55;1.40;;;;;;;;;;4380172;32;70011;-59
2023/01/27 00:38:59;;;;;;;1.98;1.17;;;;;;;;;;4403307;32;67661;-60
2023/01/27 00:41:45;;;;;;;3.42;1.55;;;;;;;;;;4415273;32;70814;-60
2023/01/27 00:44:32;;;;;;;2.10;1.33;;;;;;;;;;4403280;32;66101;-60
2023/01/27 00:47:19;;;;;;;2.50;1.30;;;;;;;;;;4403114;32;67941;-60
2023/01/27 00:50:07;;;;;;;2.28;1.40;;;;;;;;;;4390098;32;60939;-60
2023/01/27 00:52:56;;;;;;;1.98;1.30;;;;;;;;;;4392319;32;69575;-60
2023/01/27 00:55:46;;;;;;;2.92;1.50;;;;;;;;;;4403247;32;69718;-60
2023/01/27 00:58:33;;;;;;;2.53;1.35;;;;;;;;;;4381866;32;66985;-59
2023/01/27 01:01:20;;;;;;;2.15;1.17;;;;;;;;;;4403308;32;60233;-59
2023/01/27 01:04:06;;;;;;;1.98;1.45;;;;;;;;;;4414895;32;69704;-61
2023/01/27 01:06:53;;;;;;;1.83;1.50;;;;;;;;;;4389681;32;69605;-59
2023/01/27 01:09:40;;;;;;;2.85;1.62;;;;;;;;;;4392252;32;67553;-60
2023/01/27 01:12:27;;;;;;;2.33;1.40;;;;;;;;;;4392078;32;71881;-60
2023/01/27 01:15:13;;;;;;;2.35;1.70;;;;;;;;;;4403132;32;65038;-60
2023/01/27 01:18:00;;;;;;;1.90;1.40;;;;;;;;;;4403170;32;67854;-60
2023/01/27 01:20:47;;;;;;;2.03;1.30;;;;;;;;;;4378815;32;68200;-59
2023/01/27 01:23:36;;;;;;;4.28;1.67;;;;;;;;;;4392244;32;70497;-59
2023/01/27 01:26:23;;;;;;;1.73;1.40;;;;;;;;;;4414690;32;65064;-60
2023/01/27 01:29:09;;;;;;;;;;;;;;;;;;4389808;32;68647;-60
2023/01/27 01:31:56;;;;;;;1.58;1.48;;;;;;;;;;4403235;32;59593;-60
2023/01/27 01:34:43;;;;;;;3.12;1.70;;;;;;;;;;4402661;32;69391;-60
2023/01/27 01:37:30;;;;;;;2.53;1.77;;;;;;;;;;4402481;32;69172;-60
2023/01/27 01:40:17;;;;;;;2.58;1.42;;;;;;;;;;4392088;32;67689;-60
2023/01/27 01:43:13;;;;;;;3.12;1.80;;;;;;;;;;4389495;32;72411;-59
2023/01/27 01:46:01;;;;;;;2.78;1.70;;;;;;;;;;4391980;32;70445;-59
2023/01/27 01:48:49;;;;;;;2.25;1.83;;;;;;;;;;4402361;32;69190;-59
2023/01/27 01:51:56;;;;;;;2.35;1.58;;;;;;;;;;4414715;32;67673;-60
2023/01/27 01:54:51;;;;;;;2.72;1.85;;;;;;;;;;4391319;32;70792;-60
2023/01/27 01:57:41;;;;;;;2.40;1.73;;;;;;;;;;4388988;32;65993;-59
2023/01/27 02:00:27;;;;;;;3.17;2.20;;;;;;;;;;4378584;32;68647;-61
2023/01/27 02:03:14;;;;;;;2.35;1.80;;;;;;;;;;4402822;32;59036;-60
2023/01/27 02:06:01;;;;;;;3.35;1.80;;;;;;;;;;4391538;32;70291;-60
2023/01/27 02:08:49;;;;;;;3.75;2.05;;;;;;;;;;4377656;32;69637;-60
2023/01/27 02:11:35;;;;;;;3.65;1.60;;;;;;;;;;4391651;32;68133;-60
2023/01/27 02:14:22;;;;;;;3.40;1.90;;;;;;;;;;4391733;32;59994;-59
2023/01/27 02:17:09;;;;;;;2.35;1.90;;;;;;;;;;4391441;32;70799;-62
2023/01/27 02:20:24;;;;;;;3.15;1.92;;;;;;;;;;4404485;32;68430;-59
2023/01/27 02:23:43;;;;;;;2.95;1.77;;;;;;;;;;4390244;32;67866;-60
2023/01/27 02:26:34;;;;;;;3.62;2.00;;;;;;;;;;4398829;32;71511;-59
2023/01/27 02:29:21;;;;;;;3.97;2.12;;;;;;;;;;4391128;32;65265;-60
2023/01/27 02:32:20;;;;;;;4.30;2.00;;;;;;;;;;4402359;32;66858;-59
2023/01/27 02:35:08;;;;;;;2.37;1.75;;;;;;;;;;4388864;32;61240;-59
2023/01/27 02:37:56;;;;;;;2.55;1.73;;;;;;;;;;4380326;32;71613;-59
2023/01/27 02:40:43;;;;;;;2.45;1.75;;;;;;;;;;4391168;32;65868;-59
2023/01/27 02:43:30;;;;;;;3.28;1.98;;;;;;;;;;4380696;32;67952;-60
2023/01/27 02:46:17;;;;;;;3.78;2.17;;;;;;;;;;4413994;32;60240;-60
2023/01/27 02:49:04;;;;;;;;;;;;;;;;;;4388639;32;69481;-59
2023/01/27 02:51:50;;;;;;;4.07;2.00;;;;;;;;;;4401736;32;68410;-60
2023/01/27 02:54:37;;;;;;;4.90;2.45;;;;;;;;;;4388057;32;67451;-60
2023/01/27 02:57:24;;;;;;;3.97;2.50;;;;;;;;;;4388059;32;72470;-60
2023/01/27 03:00:12;;;;;;;5.15;2.30;;;;;;;;;;4402111;32;65901;-60
2023/01/27 03:02:59;;;;;;;3.08;2.15;;;;;;;;;;4401639;32;69139;-60
2023/01/27 03:05:46;;;;;;;4.25;2.17;;;;;;;;;;4399165;32;67188;-60
2023/01/27 03:08:33;;;;;;;4.32;2.55;;;;;;;;;;4413752;32;71052;-60
2023/01/27 03:20:35;;;;;;;5.68;2.75;;;;;;;;;;4403657;32;69597;-59
2023/01/27 03:23:22;;;;;;;4.30;2.22;;;;;;;;;;4413970;32;68382;-61
2023/01/27 03:26:09;;;;;;;3.62;2.40;;;;;;;;;;4413373;32;66808;-60
2023/01/27 03:32:03;;;;;;;2.80;1.48;;;;;;;;;;4378939;32;71192;-60
2023/01/27 03:34:50;;;;;;;4.07;2.40;;;;;;;;;;4413293;32;69616;-60
2023/01/27 03:48:23;;;;;;;0.45;0.45;;;;;;;;;;4400921;32;69427;-60
2023/01/27 03:51:10;;;;;;;6.55;3.00;;;;;;;;;;4409600;32;67016;-60
2023/01/27 03:53:59;;;;;;;4.82;2.60;;;;;;;;;;4388538;32;71562;-59
2023/01/27 03:56:46;;;;;;;4.47;2.53;;;;;;;;;;4383826;32;65897;-59
2023/01/27 03:59:34;;;;;;;5.30;2.83;;;;;;;;;;4393905;32;67694;-59
2023/01/27 04:08:31;;;;;;;4.90;2.80;;;;;;;;;;4382889;32;66716;-59
2023/01/27 04:14:33;;;;;;;6.68;2.87;;;;;;;;;;4394004;32;59860;-60
2023/01/27 04:17:20;;;;;;;6.03;2.90;;;;;;;;;;4372689;32;69474;-59
2023/01/27 04:20:07;;;;;;;4.18;2.53;;;;;;;;;;4395488;32;68306;-59
2023/01/27 04:22:56;;;;;;;5.47;2.80;;;;;;;;;;4394289;32;66642;-60
2023/01/27 04:25:43;;;;;;;5.43;3.00;;;;;;;;;;4395154;32;71903;-59
2023/01/27 04:28:34;;;;;;;6.55;3.33;;;;;;;;;;4395848;32;64851;-60
2023/01/27 04:31:21;;;;;;;5.05;2.70;;;;;;;;;;4393696;32;68401;-60
2023/01/27 04:34:09;;;;;;;6.12;2.95;;;;;;;;;;4383264;32;67807;-59
2023/01/27 04:36:56;;;;;;;7.72;3.03;;;;;;;;;;4360826;32;72357;-61
2023/01/27 04:39:44;;;;;;;6.43;2.90;;;;;;;;;;4393947;32;64996;-60
2023/01/27 04:42:31;;;;;;;7.15;3.55;;;;;;;;;;4395086;32;68081;-60
2023/01/27 04:45:17;;;;;;;;;;;;;;;;;;4394344;32;60240;-59
2023/01/27 04:48:05;;;;;;;5.50;3.00;;;;;;;;;;4395033;32;70127;-60
2023/01/27 04:50:52;;;;;;;4.62;2.78;;;;;;;;;;4383852;32;68145;-60
2023/01/27 04:53:39;;;;;;;5.57;2.70;;;;;;;;;;4372063;32;68228;-59
2023/01/27 04:56:31;;;;;;;7.25;3.20;;;;;;;;;;4373669;32;60201;-60
2023/01/27 04:59:17;;;;;;;3.65;2.15;;;;;;;;;;4383712;32;70592;-60
2023/01/27 05:02:04;;;;;;;3.97;2.33;;;;;;;;;;4383858;32;68561;-60
2023/01/27 05:04:51;;;;;;;3.45;2.22;;;;;;;;;;4383350;32;65748;-60
2023/01/27 05:07:38;;;;;;;5.37;2.50;;;;;;;;;;4383737;32;71640;-59
2023/01/27 05:10:24;;;;;;;5.62;2.28;;;;;;;;;;4383534;32;64896;-59
2023/01/27 05:13:11;;;;;;;3.92;2.40;;;;;;;;;;4383420;32;66723;-60
2023/01/27 05:16:09;;;;;;;5.70;3.00;;;;;;;;;;4383806;32;60084;-60
2023/01/27 05:18:56;;;;;;;4.57;2.90;;;;;;;;;;4362757;32;70619;-59
2023/01/27 05:21:43;;;;;;;4.95;2.97;;;;;;;;;;4361353;32;66822;-59
2023/01/27 05:24:30;;;;;;;6.45;3.00;;;;;;;;;;4384397;32;66809;-59
2023/01/27 05:27:17;;;;;;;6.12;3.00;;;;;;;;;;4371817;32;58772;-60
2023/01/27 05:30:04;;;;;;;7.40;3.00;;;;;;;;;;4371822;32;71071;-59
2023/01/27 05:32:51;;;;;;;6.78;3.30;;;;;;;;;;4382892;32;68455;-59
2023/01/27 05:35:37;;;;;;;6.40;3.12;;;;;;;;;;4384617;32;66684;-60
2023/01/27 05:38:24;;;;;;;6.32;3.12;;;;;;;;;;4382433;32;71260;-59
2023/01/27 05:41:12;;;;;;;6.03;3.15;;;;;;;;;;4361023;32;66630;-60
2023/01/27 05:43:59;;;;;;;5.28;2.80;;;;;;;;;;4372512;32;66769;-59
2023/01/27 05:46:45;;;;;;;4.82;2.97;;;;;;;;;;4383005;32;67804;-60
2023/01/27 05:49:32;;;;;;;5.43;3.17;;;;;;;;;;4372503;32;72101;-59
2023/01/27 05:52:19;;;;;;;7.53;3.12;;;;;;;;;;4384750;32;64736;-60
2023/01/27 05:55:06;;;;;;;6.43;3.37;;;;;;;;;;4361522;32;67508;-60
2023/01/27 05:57:53;;;;;;;4.97;3.10;;;;;;;;;;4382781;32;58874;-61
2023/01/27 06:00:40;;;;;;;5.22;3.15;;;;;;;;;;4383007;32;69584;-59
2023/01/27 06:03:26;;;;;;;;;;;;;;;;;;4371908;32;69070;-60
2023/01/27 06:06:14;;;;;;;5.25;2.85;;;;;;;;;;4383767;32;68214;-60
2023/01/27 06:09:02;;;;;;;6.47;3.22;;;;;;;;;;4371661;32;60629;-60
2023/01/27 06:11:48;;;;;;;4.20;2.75;;;;;;;;;;4382482;32;70451;-63
2023/01/27 06:14:35;;;;;;;5.55;3.20;;;;;;;;;;4382389;32;69343;-60
2023/01/27 06:17:23;;;;;;;4.15;2.20;;;;;;;;;;4383638;32;67921;-60
2023/01/27 06:20:10;;;;;;;5.47;2.75;;;;;;;;;;4371674;32;71688;-59
2023/01/27 06:22:57;;;;;;;;;;;;;;;;;;4371626;32;66695;-59
2023/01/27 06:25:46;;;;;;;6.65;3.37;;;;;;;;;;4382584;32;67769;-59
2023/01/27 06:28:33;;;;;;;5.28;2.97;;;;;;;;;;4360598;32;57798;-59
2023/01/27 06:31:21;;;;;;;5.57;2.87;;;;;;;;;;4359899;32;70568;-59
2023/01/27 06:34:08;;;;;;;6.12;3.10;;;;;;;;;;4373668;32;67217;-60
2023/01/27 06:36:54;;;;;;;5.05;2.75;;;;;;;;;;4383929;32;67608;-60
2023/01/27 06:39:41;;;;;;;5.45;3.00;;;;;;;;;;4382308;32;60456;-60
2023/01/27 06:42:27;;;;;;;4.95;2.65;;;;;;;;;;4371441;32;69813;-59
2023/01/27 06:45:14;;;;;;;5.55;3.40;;;;;;;;;;4383381;32;69299;-59
2023/01/27 06:48:02;;;;;;;5.55;2.78;;;;;;;;;;4383533;32;66849;-60
2023/01/27 06:50:49;;;;;;;6.95;3.30;;;;;;;;;;4370755;32;70760;-59
2023/01/27 06:53:37;;;;;;;5.75;3.15;;;;;;;;;;4383315;32;65316;-59
2023/01/27 06:56:24;;;;;;;5.03;3.15;;;;;;;;;;4382713;32;67726;-59
2023/01/27 06:59:11;;;;;;;4.78;2.80;;;;;;;;;;4371040;32;68300;-59
2023/01/27 07:01:51;;;;;;;7.18;3.70;;;;;;;;;;3847488;37;43864;-60
2023/01/27 07:04:39;;;;;;;6.30;2.83;;;;;;;;;;4399571;32;60175;-59
2023/01/27 07:07:26;;;;;;;7.95;3.40;;;;;;;;;;4387673;32;69527;-59
2023/01/27 07:10:14;;;;;;;6.15;3.45;;;;;;;;;;4409664;32;69697;-60
2023/01/27 07:13:11;;;;;;;5.55;2.90;;;;;;;;;;4409659;32;67829;-60
2023/01/27 07:15:59;;;;;;;5.40;3.10;;;;;;;;;;4409459;32;70814;-60
2023/01/27 07:18:45;;;;;;;5.57;3.15;;;;;;;;;;4388397;32;66184;-60
2023/01/27 07:21:32;;;;;;;5.20;3.08;;;;;;;;;;4409581;32;66386;-59
2023/01/27 07:24:18;;;;;;;9.68;5.07;;;;;;;;;;4398987;32;60002;-59
2023/01/27 07:27:05;;;;;;;5.97;3.33;;;;;;;;;;4387147;32;70767;-59
2023/01/27 07:29:52;;;;;;;5.35;3.17;;;;;;;;;;4398278;32;64333;-59
2023/01/27 07:32:39;;;;;;;6.32;3.05;;;;;;;;;;4409421;32;67403;-60
2023/01/27 07:35:26;;;;;;;5.95;3.33;;;;;;;;;;4398859;32;60496;-60
2023/01/27 07:38:12;;;;;;;5.50;3.15;;;;;;;;;;4409524;32;69471;-60
2023/01/27 07:41:02;;;;;;;8.45;3.55;;;;;;;;;;4397921;32;68230;-60
2023/01/27 07:43:49;;;;;;;9.05;3.47;;;;;;;;;;4387625;32;65652;-60
2023/01/27 07:46:37;;;;;;;6.40;3.60;;;;;;;;;;4408956;32;71839;-60
2023/01/27 07:49:24;;;;;;;5.40;3.40;;;;;;;;;;4409256;32;64528;-60
2023/01/27 07:52:10;;;;;;;6.75;3.53;;;;;;;;;;4398400;32;69612;-60
2023/01/27 07:54:58;;;;;;;5.50;3.50;;;;;;;;;;4393173;32;67593;-60
2023/01/27 07:57:44;;;;;;;7.15;3.90;;;;;;;;;;4393645;32;70760;-59
2023/01/27 08:00:31;;;;;;;6.20;3.72;;;;;;;;;;4394882;32;65259;-59
2023/01/27 08:03:26;;;;;;;7.25;3.90;;;;;;;;;;4361437;32;68629;-60
2023/01/27 08:06:13;;;;;;;8.05;4.32;;;;;;;;;;4372771;32;60404;-60
2023/01/27 08:09:01;;;;;;;6.10;3.37;;;;;;;;;;4393797;32;70685;-60
2023/01/27 08:11:49;;;;;;;7.20;4.25;;;;;;;;;;4389159;32;69315;-60
2023/01/27 08:14:36;;;;;;;6.53;3.85;;;;;;;;;;4362534;32;66954;-60
2023/01/27 08:17:23;;;;;;;6.85;3.65;;;;;;;;;;4386497;32;60308;-60
2023/01/27 08:20:10;;;;;;;5.72;3.45;;;;;;;;;;4377227;32;70720;-59
2023/01/27 08:22:57;;;;;;;6.97;3.97;;;;;;;;;;4369812;32;69738;-67
2023/01/27 08:25:52;;;;;;;7.28;4.18;;;;;;;;;;4378054;32;68117;-63
2023/01/27 08:28:39;;;;;;;6.45;3.75;;;;;;;;;;4371294;32;70549;-66
2023/01/27 08:31:26;;;;;;;7.12;4.03;;;;;;;;;;4372506;32;66157;-64
2023/01/27 08:34:13;;;;;;;7.37;4.10;;;;;;;;;;4367406;32;67507;-66
2023/01/27 08:37:00;;;;;;;7.28;4.07;;;;;;;;;;4371103;32;60121;-62
2023/01/27 08:39:47;;;;;;;6.22;3.90;;;;;;;;;;4367919;32;69811;-63
2023/01/27 08:42:34;;;;;;;8.57;4.05;;;;;;;;;;4373553;32;66292;-64
2023/01/27 08:45:20;;;;;;;6.87;3.40;;;;;;;;;;4368205;32;67444;-63
2023/01/27 08:48:07;;;;;;;7.20;4.25;;;;;;;;;;4360644;32;60633;-63
2023/01/27 08:50:55;;;;;;;7.18;4.15;;;;;;;;;;4357769;32;70772;-63
2023/01/27 08:53:41;;;;;;;6.55;3.70;;;;;;;;;;4378224;32;69063;-67
2023/01/27 08:56:29;;;;;;;5.53;3.40;;;;;;;;;;4372041;32;67935;-65
2023/01/27 08:59:16;;;;;;;7.60;3.67;;;;;;;;;;4374188;32;71822;-61
2023/01/27 09:02:02;;;;;;;7.18;4.00;;;;;;;;;;4376833;32;65717;-64
2023/01/27 09:04:49;;;;;;;5.85;3.35;;;;;;;;;;4380374;32;66602;-58
2023/01/27 09:07:36;;;;;;;8.15;4.40;;;;;;;;;;4367162;32;66937;-58
2023/01/27 09:10:22;;;;;;;;;;;;;;;;;;4378718;32;71634;-59
2023/01/27 09:13:09;;;;;;;7.12;4.12;;;;;;;;;;4359761;32;66134;-63
2023/01/27 09:15:56;;;;;;;;;;;;;;;;;;4369764;32;66644;-61
2023/01/27 09:18:42;;;;;;;6.80;3.90;;;;;;;;;;4371917;32;58995;-61
2023/01/27 09:21:29;;;;;;;;;;;;;;;;;;4380995;32;70526;-62
2023/01/27 09:24:16;;;;;;;7.72;4.70;;;;;;;;;;4376831;32;68488;-62
2023/01/27 09:27:03;;;;;;;8.45;4.90;;;;;;;;;;4380431;32;66757;-66
2023/01/27 09:29:49;;;;;;;8.07;4.65;;;;;;;;;;4367562;32;60121;-65
2023/01/27 09:32:36;;;;;;;6.00;3.87;;;;;;;;;;4375234;32;70255;-70
2023/01/27 09:35:23;;;;;;;8.38;4.72;;;;;;;;;;4366396;32;69483;-74
2023/01/27 09:38:12;;;;;;;9.02;4.37;;;;;;;;;;4381895;32;66763;-73
2023/01/27 09:41:31;;;;;;;7.57;5.45;;;;;;;;;;4365269;32;71997;-62
2023/01/27 09:44:55;;;;;;;7.68;4.40;;;;;;;;;;4366053;32;66024;-67
2023/01/27 09:47:51;;;;;;;7.57;4.28;;;;;;;;;;4381048;32;68280;-63
2023/01/27 09:50:45;;;;;;;7.47;4.00;;;;;;;;;;4371201;32;59583;-64
2023/01/27 09:53:42;;;;;;;7.70;4.78;;;;;;;;;;4352551;32;71461;-71
2023/01/27 09:56:50;;;;;;;7.03;4.62;;;;;;;;;;4370896;32;63468;-63
2023/01/27 09:59:58;;;;;;;6.72;4.20;;;;;;;;;;4363582;32;68030;-64
2023/01/27 10:03:23;;;;;;;8.05;4.65;;;;;;;;;;4370774;32;58699;-64
2023/01/27 10:06:25;;;;;;;7.32;4.00;;;;;;;;;;4334061;32;71160;-67
2023/01/27 10:09:38;;;;;;;6.78;4.18;;;;;;;;;;4326463;32;69152;-63
2023/01/27 10:12:54;;;;;;;8.25;5.30;;;;;;;;;;3844860;37;43537;-63
2023/01/27 10:16:00;;;;;;;8.82;4.90;;;;;;;;;;4395215;32;59965;-62
2023/01/27 10:19:09;;;;;;;6.50;3.78;;;;;;;;;;4394260;32;71299;-63
2023/01/27 10:22:21;;;;;;;6.78;4.70;;;;;;;;;;4385775;32;68044;-64
2023/01/27 10:25:32;;;;;;;7.82;4.40;;;;;;;;;;4405286;32;67403;-63
2023/01/27 10:28:22;;;;;;;7.95;4.90;;;;;;;;;;4406575;32;71787;-64
2023/01/27 10:31:17;;;;;;;8.85;4.80;;;;;;;;;;4384866;32;66640;-61
2023/01/27 10:34:28;;;;;;;8.40;5.30;;;;;;;;;;4397707;32;67839;-64
2023/01/27 10:37:20;;;;;;;7.75;5.18;;;;;;;;;;4382837;32;60709;-62
2023/01/27 10:40:43;;;;;;;7.32;4.97;;;;;;;;;;4402408;32;70844;-63
2023/01/27 10:43:56;;;;;;;7.45;4.62;;;;;;;;;;4396200;32;65255;-61
2023/01/27 10:47:19;;;;;;;8.27;5.05;;;;;;;;;;4378937;32;65406;-62
2023/01/27 10:50:10;;;;;;;7.62;4.97;;;;;;;;;;4397917;32;59091;-62
2023/01/27 10:53:17;;;;;;;8.07;4.75;;;;;;;;;;4399729;32;69647;-64
2023/01/27 10:56:33;;;;;;;7.78;4.68;;;;;;;;;;4373394;32;69420;-65
2023/01/27 10:59:47;;;;;;;8.25;4.70;;;;;;;;;;4378994;32;67805;-64
2023/01/27 11:02:44;;;;;;;8.10;4.82;;;;;;;;;;4355275;32;71535;-63
2023/01/27 11:05:38;;;;;;;8.57;3.90;;;;;;;;;;4377365;32;65574;-65
2023/01/27 11:08:31;;;;;;;8.57;4.93;;;;;;;;;;4377082;32;69257;-65
2023/01/27 11:14:33;;;;;;;7.28;4.50;;;;;;;;;;4371649;32;71426;-63
2023/01/27 11:17:46;;;;;;;9.77;5.20;;;;;;;;;;4370899;32;67045;-63
2023/01/27 11:20:47;;;;;;;7.80;4.70;;;;;;;;;;4363096;32;65281;-62
2023/01/27 11:23:44;;;;;;;6.93;4.78;;;;;;;;;;4353891;32;60872;-64
2023/01/27 11:26:34;;;;;;;8.55;4.72;;;;;;;;;;4359033;32;70610;-69
2023/01/27 11:29:35;;;;;;;8.00;4.65;;;;;;;;;;4365501;32;68525;-68
2023/01/27 11:32:59;;;;;;;8.50;4.55;;;;;;;;;;4363555;32;66769;-67
2023/01/27 11:35:47;;;;;;;8.57;5.53;;;;;;;;;;4370234;32;59958;-61
2023/01/27 11:38:33;;;;;;;7.35;4.78;;;;;;;;;;4381257;32;71230;-61
2023/01/27 11:41:20;;;;;;;;;;;;;;;;;;4360050;32;69833;-61
2023/01/27 11:44:11;;;;;;;10.30;5.00;;;;;;;;;;4381823;32;67984;-61
2023/01/27 11:46:58;;;;;;;8.40;4.70;;;;;;;;;;4381821;32;71691;-61
2023/01/27 11:49:47;;;;;;;7.62;4.82;;;;;;;;;;4382315;32;65880;-62
2023/01/27 11:52:34;;;;;;;10.20;5.60;;;;;;;;;;4372412;32;67408;-61
2023/01/27 11:55:24;;;;;;;7.97;4.80;;;;;;;;;;4371818;32;60258;-60
2023/01/27 11:58:32;;;;;;;8.05;5.22;;;;;;;;;;4371575;32;70553;-61
2023/01/27 12:01:20;;;;;;;;;;;;;;;;;;4372580;32;65072;-60
2023/01/27 12:04:20;;;;;;;9.30;5.03;;;;;;;;;;4372709;32;67079;-60
2023/01/27 12:07:23;;;;;;;7.37;4.85;;;;;;;;;;4372229;32;60726;-60
2023/01/27 12:10:29;;;;;;;7.70;5.20;;;;;;;;;;4372048;32;70430;-60
2023/01/27 12:13:20;;;;;;;8.40;5.50;;;;;;;;;;4347363;32;69472;-62
2023/01/27 12:16:06;;;;;;;7.93;5.00;;;;;;;;;;4358777;32;66812;-62
2023/01/27 12:19:02;;;;;;;8.00;5.50;;;;;;;;;;4356200;32;71318;-62
2023/01/27 12:21:57;;;;;;;7.80;4.95;;;;;;;;;;4379859;32;65859;-61
2023/01/27 12:24:50;;;;;;;7.80;4.50;;;;;;;;;;4379576;32;66624;-60
2023/01/27 12:27:42;;;;;;;7.43;4.70;;;;;;;;;;4369050;32;67343;-60
2023/01/27 12:30:37;;;;;;;7.30;4.72;;;;;;;;;;4379372;32;71583;-61
2023/01/27 12:33:28;;;;;;;8.20;5.03;;;;;;;;;;4368680;32;65617;-61
2023/01/27 12:36:17;;;;;;;8.15;5.60;;;;;;;;;;4380096;32;66617;-61
2023/01/27 12:39:03;;;;;;;8.45;5.28;;;;;;;;;;4358304;32;60019;-61
2023/01/27 12:41:50;;;;;;;7.97;5.53;;;;;;;;;;4378060;32;70582;-60
2023/01/27 12:44:41;;;;;;;;;;;;;;;;;;4383656;32;69352;-61
2023/01/27 12:47:30;;;;;;;10.13;5.87;;;;;;;;;;4364485;32;68237;-61
2023/01/27 12:50:23;;;;;;;6.95;4.65;;;;;;;;;;4376007;32;60175;-61
2023/01/27 12:53:12;;;;;;;7.30;4.75;;;;;;;;;;4382514;32;70809;-61
2023/01/27 12:56:12;;;;;;;10.40;5.15;;;;;;;;;;4385380;32;68281;-61
2023/01/27 12:59:02;;;;;;;8.85;5.72;;;;;;;;;;4373444;32;67669;-61
2023/01/27 13:02:18;;;;;;;7.95;4.80;;;;;;;;;;4382194;32;71151;-60
2023/01/27 13:05:13;;;;;;;8.98;4.90;;;;;;;;;;4379103;32;64769;-63
2023/01/27 13:08:00;;;;;;;8.60;5.32;;;;;;;;;;4368564;32;67620;-62
2023/01/27 13:11:01;;;;;;;9.63;5.47;;;;;;;;;;4376697;32;60410;-62
2023/01/27 13:13:50;;;;;;;8.35;5.80;;;;;;;;;;4378632;32;70625;-61
2023/01/27 13:16:38;;;;;;;8.10;5.82;;;;;;;;;;4368839;32;65111;-62
2023/01/27 13:19:33;;;;;;;8.23;5.07;;;;;;;;;;4368230;32;67911;-62
2023/01/27 13:22:23;;;;;;;7.80;4.60;;;;;;;;;;4376789;32;60443;-61
2023/01/27 13:25:40;;;;;;;7.95;4.70;;;;;;;;;;4379592;32;70644;-61
2023/01/27 13:28:46;;;;;;;9.38;5.75;;;;;;;;;;4379996;32;69780;-62
2023/01/27 13:31:51;;;;;;;7.85;5.50;;;;;;;;;;4377902;32;67790;-62
2023/01/27 13:34:49;;;;;;;7.87;5.22;;;;;;;;;;4365481;32;71750;-62
2023/01/27 13:37:46;;;;;;;8.90;5.50;;;;;;;;;;4378507;32;66003;-61
2023/01/27 13:40:46;;;;;;;10.32;5.45;;;;;;;;;;4367864;32;67752;-61
2023/01/27 13:43:40;;;;;;;7.22;4.62;;;;;;;;;;4376151;32;66897;-61
2023/01/27 13:46:30;;;;;;;7.28;5.05;;;;;;;;;;4367728;32;71390;-61
2023/01/27 13:49:36;;;;;;;10.80;6.07;;;;;;;;;;4381397;32;64938;-61
2023/01/27 13:52:24;;;;;;;7.43;5.65;;;;;;;;;;4371231;32;66949;-61
2023/01/27 13:55:14;;;;;;;9.77;5.40;;;;;;;;;;4383323;32;59276;-61
2023/01/27 13:58:04;;;;;;;9.05;6.07;;;;;;;;;;4381989;32;70241;-61
2023/01/27 14:01:24;;;;;;;9.60;5.72;;;;;;;;;;4382047;32;69280;-61
2023/01/27 14:04:22;;;;;;;9.27;5.43;;;;;;;;;;4383174;32;66757;-61
2023/01/27 14:07:25;;;;;;;7.70;5.53;;;;;;;;;;4371161;32;70755;-62
2023/01/27 14:10:35;;;;;;;9.77;6.07;;;;;;;;;;4370738;32;70710;-61
2023/01/27 14:13:30;;;;;;;9.20;5.90;;;;;;;;;;4381564;32;69307;-62
2023/01/27 14:16:53;;;;;;;9.23;5.90;;;;;;;;;;4381570;32;67998;-62
2023/01/27 14:19:48;;;;;;;10.18;6.05;;;;;;;;;;4381079;32;72217;-62
2023/01/27 14:22:53;;;;;;;8.40;5.45;;;;;;;;;;4381694;32;65757;-61
2023/01/27 14:26:03;;;;;;;8.35;5.85;;;;;;;;;;4370448;32;67889;-61
2023/01/27 14:28:57;;;;;;;9.00;5.80;;;;;;;;;;4360094;32;59296;-60
2023/01/27 14:32:11;;;;;;;8.50;5.65;;;;;;;;;;4383550;32;69592;-61
2023/01/27 14:38:23;;;;;;;9.43;6.70;;;;;;;;;;3847518;37;43600;-61
2023/01/27 14:41:18;;;;;;;8.52;5.97;;;;;;;;;;4400005;32;60124;-64
2023/01/27 14:44:35;;;;;;;10.15;6.22;;;;;;;;;;4400831;32;69646;-61
2023/01/27 14:47:50;;;;;;;10.43;5.32;;;;;;;;;;4388363;32;68469;-61
2023/01/27 14:51:01;;;;;;;8.50;5.62;;;;;;;;;;4398839;32;67572;-61
2023/01/27 14:53:53;;;;;;;10.60;6.60;;;;;;;;;;4380881;32;71348;-61
2023/01/27 14:56:47;;;;;;;10.32;5.93;;;;;;;;;;4372971;32;65668;-61
2023/01/27 14:59:46;;;;;;;7.95;5.55;;;;;;;;;;4383498;32;67247;-62
2023/01/27 15:02:35;;;;;;;9.93;5.80;;;;;;;;;;4383835;32;59864;-61
2023/01/27 15:05:22;;;;;;;9.32;5.70;;;;;;;;;;4369941;32;72513;-61
2023/01/27 15:08:14;;;;;;;9.38;5.93;;;;;;;;;;4360663;32;66811;-61
2023/01/27 15:11:49;;;;;;;8.13;5.45;;;;;;;;;;4383628;32;67856;-61
2023/01/27 15:14:56;;;;;;;8.77;5.40;;;;;;;;;;4378333;32;59267;-61
2023/01/27 15:18:08;;;;;;;9.73;5.43;;;;;;;;;;4370239;32;70240;-61
2023/01/27 15:21:25;;;;;;;8.93;5.80;;;;;;;;;;4395439;32;68318;-61
2023/01/27 15:24:24;;;;;;;9.95;5.72;;;;;;;;;;4369928;32;68360;-61
2023/01/27 15:27:11;;;;;;;10.57;6.32;;;;;;;;;;4369486;32;72301;-61
2023/01/27 15:30:03;;;;;;;;;;;;;;;;;;4359899;32;63800;-61
2023/01/27 15:32:50;;;;;;;10.02;6.07;;;;;;;;;;4395180;32;69242;-61
2023/01/27 15:35:40;;;;;;;11.50;6.87;;;;;;;;;;4393591;32;67534;-61
2023/01/27 15:38:34;;;;;;;9.68;6.50;;;;;;;;;;4372169;32;70435;-61
2023/01/27 15:41:20;;;;;;;11.23;5.90;;;;;;;;;;4382975;32;65887;-61
2023/01/27 15:44:15;;;;;;;12.13;6.25;;;;;;;;;;4369594;32;68288;-61
2023/01/27 15:47:27;;;;;;;12.07;7.32;;;;;;;;;;4368463;32;59772;-60
2023/01/27 15:50:25;;;;;;;10.80;6.50;;;;;;;;;;4383535;32;70542;-61
2023/01/27 15:53:28;;;;;;;13.93;7.32;;;;;;;;;;4362097;32;68496;-61
2023/01/27 15:56:16;;;;;;;12.15;7.05;;;;;;;;;;4372661;32;67274;-62
2023/01/27 15:59:04;;;;;;;10.07;6.68;;;;;;;;;;4373063;32;60465;-61
2023/01/27 16:02:01;;;;;;;11.70;7.53;;;;;;;;;;4359368;32;70386;-61
2023/01/27 16:05:05;;;;;;;12.37;7.97;;;;;;;;;;4372729;32;68095;-61
2023/01/27 16:07:59;;;;;;;12.23;7.20;;;;;;;;;;4384589;32;67895;-62
2023/01/27 16:10:46;;;;;;;10.82;7.20;;;;;;;;;;4362089;32;71732;-61
2023/01/27 16:13:35;;;;;;;12.07;7.43;;;;;;;;;;4384565;32;65050;-61
2023/01/27 16:16:28;;;;;;;10.70;6.93;;;;;;;;;;4359353;32;68093;-62
2023/01/27 16:19:18;;;;;;;11.80;6.65;;;;;;;;;;4362530;32;59923;-61
2023/01/27 16:22:18;;;;;;;12.43;6.87;;;;;;;;;;4372642;32;69875;-61
2023/01/27 16:25:19;;;;;;;11.65;6.60;;;;;;;;;;4362263;32;64839;-61
2023/01/27 16:28:19;;;;;;;10.88;6.68;;;;;;;;;;4372624;32;66775;-63
2023/01/27 16:31:16;;;;;;;10.98;6.85;;;;;;;;;;4372627;32;60148;-61
2023/01/27 16:34:04;;;;;;;10.40;6.65;;;;;;;;;;4369567;32;70349;-61
2023/01/27 16:37:02;;;;;;;11.23;6.70;;;;;;;;;;4371925;32;69178;-61
2023/01/27 16:40:05;;;;;;;10.68;6.25;;;;;;;;;;4373214;32;66620;-61
2023/01/27 16:43:12;;;;;;;9.88;6.60;;;;;;;;;;4358712;32;71506;-61
2023/01/27 16:45:59;;;;;;;;;;;;;;;;;;4373175;32;65780;-61
2023/01/27 16:48:46;;;;;;;12.98;6.65;;;;;;;;;;4362299;32;67790;-61
2023/01/27 16:51:34;;;;;;;10.90;6.30;;;;;;;;;;4382827;32;67670;-62
2023/01/27 16:54:23;;;;;;;10.40;6.97;;;;;;;;;;4382614;32;71615;-61
2023/01/27 16:57:44;;;;;;;12.30;7.40;;;;;;;;;;4358748;32;65711;-61
2023/01/27 17:00:35;;;;;;;10.45;6.10;;;;;;;;;;4357677;32;67641;-61
2023/01/27 17:03:44;;;;;;;11.05;6.68;;;;;;;;;;4361801;32;59973;-61
2023/01/27 17:06:31;;;;;;;13.20;7.00;;;;;;;;;;4361259;32;70584;-61
2023/01/27 17:09:34;;;;;;;11.20;6.40;;;;;;;;;;4371943;32;69303;-61
2023/01/27 17:12:33;;;;;;;9.98;5.90;;;;;;;;;;4369236;32;68268;-61
2023/01/27 17:15:27;;;;;;;12.15;6.55;;;;;;;;;;4361503;32;60105;-61
2023/01/27 17:18:14;;;;;;;11.73;6.60;;;;;;;;;;4371559;32;70315;-61
2023/01/27 17:21:02;;;;;;;10.55;6.32;;;;;;;;;;4358388;32;68966;-61
2023/01/27 17:23:49;;;;;;;10.65;6.57;;;;;;;;;;4371816;32;67511;-61
2023/01/27 17:26:36;;;;;;;11.25;6.95;;;;;;;;;;4361068;32;71669;-62
2023/01/27 17:29:31;;;;;;;;;;;;;;;;;;4384081;32;65937;-61
2023/01/27 17:32:24;;;;;;;11.55;6.50;;;;;;;;;;4361467;32;67751;-60
2023/01/27 17:35:31;;;;;;;12.20;6.82;;;;;;;;;;3847653;37;43774;-61
2023/01/27 17:38:47;;;;;;;11.75;7.30;;;;;;;;;;4388642;32;60172;-61
2023/01/27 17:41:36;;;;;;;12.25;6.95;;;;;;;;;;4388121;32;70305;-61
2023/01/27 17:44:23;;;;;;;10.90;6.62;;;;;;;;;;4398477;32;69968;-61
2023/01/27 17:47:16;;;;;;;11.38;6.72;;;;;;;;;;4387538;32;67351;-61
2023/01/27 17:50:06;;;;;;;9.80;6.07;;;;;;;;;;4398780;32;70787;-61
2023/01/27 17:52:55;;;;;;;13.62;6.97;;;;;;;;;;4398797;32;65710;-61
2023/01/27 17:55:41;;;;;;;11.30;6.87;;;;;;;;;;4383854;32;67173;-61
2023/01/27 17:58:28;;;;;;;;;;;;;;;;;;4394759;32;59300;-61
2023/01/27 18:01:15;;;;;;;11.77;6.93;;;;;;;;;;4394241;32;72077;-62